Time;durP1;ratioP1;P1;durP2;ratioP2;P2;SDS_P1;SDS_P2;PMS_P1;PMS_P2;Temp;Humidity;BMP_temperature;BMP_pressure;BME280_temperature;BME280_humidity;BME280_pressure;Samples;Min_cycle;Max_cycle;Signal;HPM_P1;HPM_P2
2022/01/18 00:01:24;;;;;;;29.31;15.34;;;;;;;4.04;97.96;101339.38;2021586;77;20602;-68
2022/01/18 00:04:29;;;;;;;33.91;15.95;;;;;;;4.06;97.95;101336.91;2023049;80;20475;-68
2022/01/18 00:07:32;;;;;;;30.80;16.26;;;;;;;4.06;97.95;101326.63;2023324;80;20344;-68
2022/01/18 00:10:35;;;;;;;29.00;15.18;;;;;;;4.05;97.91;101330.88;2023848;80;20397;-68
2022/01/18 00:17:01;;;;;;;28.85;16.01;;;;;;;4.05;97.82;101328.31;2020664;78;34496;-68
2022/01/18 00:20:04;;;;;;;29.17;14.85;;;;;;;4.04;97.75;101334.25;2023264;80;21051;-68
2022/01/18 00:23:06;;;;;;;30.88;15.91;;;;;;;4.04;97.78;101320.50;2023125;80;20336;-68
2022/01/18 00:26:10;;;;;;;28.59;15.55;;;;;;;4.02;97.67;101312.72;2023053;80;20337;-68
2022/01/18 00:29:16;;;;;;;30.40;14.94;;;;;;;3.99;97.74;101312.56;2022935;80;20773;-68
2022/01/18 00:35:41;;;;;;;33.34;15.90;;;;;;;3.96;97.78;101321.81;2041409;69;20853;-68
2022/01/18 00:38:46;;;;;;;32.59;16.46;;;;;;;3.93;97.87;101312.22;2023199;80;20403;-68
2022/01/18 00:41:49;;;;;;;33.26;15.70;;;;;;;3.93;98.03;101331.09;2023329;80;20316;-68
2022/01/18 00:44:51;;;;;;;33.58;16.21;;;;;;;3.94;98.08;101324.28;2022974;80;20370;-68
2022/01/18 00:47:54;;;;;;;32.89;16.14;;;;;;;3.93;98.01;101323.38;2022299;77;21250;-68
2022/01/18 00:50:57;;;;;;;36.28;16.01;;;;;;;3.93;98.11;101318.25;2022650;80;20329;-68
2022/01/18 00:54:00;;;;;;;36.72;17.54;;;;;;;3.97;98.20;101316.75;2022859;80;20367;-68
2022/01/18 00:57:03;;;;;;;37.19;16.65;;;;;;;3.96;98.01;101316.66;2022783;80;20320;-68
2022/01/18 01:00:07;;;;;;;33.10;17.23;;;;;;;3.93;98.02;101313.09;2024630;80;20442;-68
2022/01/18 01:03:10;;;;;;;33.47;16.89;;;;;;;3.93;98.10;101313.09;2022658;78;20339;-68
2022/01/18 01:06:13;;;;;;;28.54;14.89;;;;;;;3.93;98.13;101314.78;2023092;80;20345;-68
2022/01/18 01:09:15;;;;;;;33.04;16.05;;;;;;;3.92;98.06;101320.75;2023160;80;20334;-68
2022/01/18 01:12:21;;;;;;;33.91;16.81;;;;;;;3.89;97.98;101315.44;2023169;80;20441;-68
2022/01/18 01:15:25;;;;;;;33.11;16.77;;;;;;;3.88;97.95;101322.28;2021892;77;20479;-68
2022/01/18 01:42:53;;;;;;;32.99;14.80;;;;;;;3.67;98.02;101326.25;2017926;80;20638;-68
2022/01/18 01:45:51;;;;;;;37.99;17.00;;;;;;;3.63;98.25;101335.50;2016139;80;21500;-69
2022/01/18 01:48:56;;;;;;;29.20;14.32;;;;;;;3.64;98.35;101332.13;2017588;80;20928;-68
2022/01/18 01:52:03;;;;;;;34.49;15.98;;;;;;;3.62;98.21;101330.28;2018066;80;20309;-68
2022/01/18 01:55:06;;;;;;;29.92;14.88;;;;;;;3.59;98.41;101332.66;2017139;80;20334;-68
2022/01/18 01:58:09;;;;;;;31.76;15.27;;;;;;;3.58;98.44;101339.47;2018191;80;21371;-69
2022/01/18 02:01:11;;;;;;;31.13;14.16;;;;;;;3.55;98.40;101326.47;2015494;78;21010;-68
2022/01/18 02:04:16;;;;;;;32.06;14.96;;;;;;;3.50;98.22;101325.34;2017750;80;20309;-68
2022/01/18 02:07:18;;;;;;;38.38;16.60;;;;;;;3.46;98.29;101323.41;2017824;80;20774;-68
2022/01/18 02:10:21;;;;;;;33.59;15.34;;;;;;;3.43;98.44;101314.66;2018139;80;20358;-68
2022/01/18 02:13:24;;;;;;;26.21;14.79;;;;;;;3.39;98.38;101321.28;2017673;80;20963;-68
2022/01/18 02:23:15;;;;;;;36.03;15.51;;;;;;;3.08;97.58;101305.00;2017836;80;20353;-68
2022/01/18 02:26:18;;;;;;;32.51;16.17;;;;;;;3.04;97.84;101306.47;2017883;80;20364;-68
2022/01/18 02:29:20;;;;;;;30.26;15.52;;;;;;;2.97;97.75;101309.50;2017616;80;20351;-68
2022/01/18 02:32:23;;;;;;;28.64;15.05;;;;;;;2.93;97.91;101307.56;2015401;77;28114;-68
2022/01/18 02:35:26;;;;;;;30.79;14.68;;;;;;;2.89;97.76;101311.66;2022122;80;20343;-68
2022/01/18 02:38:28;;;;;;;36.14;16.26;;;;;;;2.85;97.95;101303.66;2022551;80;21145;-68
2022/01/18 02:41:32;;;;;;;35.46;16.89;;;;;;;2.85;98.28;101308.81;2023457;80;20367;-68
2022/01/18 02:44:36;;;;;;;29.92;15.20;;;;;;;2.85;98.59;101311.38;2022304;80;20670;-68
2022/01/18 02:47:38;;;;;;;29.10;14.49;;;;;;;2.82;98.57;101319.78;2020728;77;20427;-68
2022/01/18 02:50:41;;;;;;;28.92;14.01;;;;;;;2.79;98.51;101308.47;2022873;80;20579;-68
2022/01/18 02:53:57;;;;;;;30.25;13.31;;;;;;;2.78;98.58;101309.25;2023454;80;20368;-68
2022/01/18 02:57:02;;;;;;;34.89;16.34;;;;;;;2.76;98.54;101291.22;2022780;80;20383;-68
2022/01/18 03:03:39;;;;;;;35.24;16.60;;;;;;;2.85;99.09;101294.28;2017779;80;20379;-68
2022/01/18 03:06:42;;;;;;;37.22;16.92;;;;;;;2.92;99.17;101304.13;2024677;80;20327;-68
2022/01/18 03:09:45;;;;;;;31.25;15.32;;;;;;;2.96;99.12;101308.63;2024528;80;20369;-68
2022/01/18 03:12:48;;;;;;;33.20;15.04;;;;;;;3.01;99.21;101307.19;2023615;80;20345;-68
2022/01/18 03:15:51;;;;;;;31.94;15.96;;;;;;;3.00;99.05;101305.44;2021866;78;24177;-68
2022/01/18 03:18:54;;;;;;;31.31;15.02;;;;;;;3.03;99.22;101309.84;2024319;80;20315;-68
2022/01/18 03:21:57;;;;;;;29.60;15.25;;;;;;;3.06;99.40;101310.03;2023915;80;20308;-68
2022/01/18 03:25:13;;;;;;;30.76;14.77;;;;;;;3.10;99.40;101301.72;2023694;80;20343;-68
2022/01/18 03:28:16;;;;;;;26.51;13.51;;;;;;;3.13;99.36;101301.00;2023497;80;20353;-68
2022/01/18 03:31:18;;;;;;;27.56;14.06;;;;;;;3.16;99.24;101298.59;2020750;78;24004;-69
2022/01/18 03:34:22;;;;;;;30.54;14.11;;;;;;;3.16;99.34;101301.16;2022729;80;20324;-68
2022/01/18 03:37:25;;;;;;;27.98;14.60;;;;;;;3.20;99.38;101315.94;2024011;80;21092;-68
2022/01/18 03:40:28;;;;;;;27.14;14.76;;;;;;;3.20;99.26;101311.69;2023863;80;20299;-68
2022/01/18 03:43:34;;;;;;;26.99;14.52;;;;;;;3.22;99.30;101317.78;2023656;80;20334;-68
2022/01/18 03:46:37;;;;;;;24.13;13.76;;;;;;;3.24;99.25;101317.91;2021563;77;21144;-68
2022/01/18 03:49:40;;;;;;;26.67;13.64;;;;;;;3.27;99.25;101312.94;2023131;80;20434;-68
2022/01/18 03:52:44;;;;;;;30.63;15.04;;;;;;;3.27;99.22;101323.19;2023026;80;20359;-69
2022/01/18 03:55:48;;;;;;;25.39;14.04;;;;;;;3.29;99.44;101322.47;2024093;80;20316;-69
2022/01/18 03:58:50;;;;;;;27.27;14.21;;;;;;;3.32;99.66;101320.06;2023795;80;20312;-68
2022/01/18 04:01:53;;;;;;;25.49;13.79;;;;;;;3.35;99.69;101321.91;2022019;78;21008;-68
2022/01/18 04:04:56;;;;;;;26.35;13.76;;;;;;;3.36;99.62;101312.53;2023263;80;20504;-68
2022/01/18 04:07:59;;;;;;;31.41;14.96;;;;;;;3.38;99.57;101318.63;2023017;80;20349;-68
2022/01/18 04:11:01;;;;;;;31.45;14.61;;;;;;;3.39;99.48;101322.97;2023153;80;20327;-68
2022/01/18 04:14:04;;;;;;;29.45;14.25;;;;;;;3.39;99.46;101322.97;2023626;80;20348;-68
2022/01/18 04:17:15;;;;;;;29.30;15.59;;;;;;;3.40;99.50;101324.72;2021479;78;23434;-69
2022/01/18 04:27:01;;;;;;;28.14;14.74;;;;;;;3.44;99.36;101329.25;2022852;80;20410;-68
2022/01/18 04:30:05;;;;;;;29.95;15.00;;;;;;;3.45;99.41;101331.91;2021400;80;20366;-68
2022/01/18 04:33:08;;;;;;;34.84;15.75;;;;;;;3.48;99.38;101336.34;2022727;77;20671;-68
2022/01/18 04:36:10;;;;;;;38.46;18.39;;;;;;;3.46;99.30;101325.97;2022491;80;20364;-68
2022/01/18 04:39:13;;;;;;;37.95;16.73;;;;;;;3.47;99.42;101327.75;2023003;80;20762;-68
2022/01/18 04:42:31;;;;;;;30.40;14.49;;;;;;;3.48;99.36;101324.38;2022459;80;20305;-68
2022/01/18 04:48:55;;;;;;;35.75;15.89;;;;;;;3.41;99.33;101323.94;2023034;80;20376;-69
2022/01/18 04:51:58;;;;;;;39.11;17.44;;;;;;;3.40;99.48;101322.16;2023254;80;20357;-68
2022/01/18 04:55:03;;;;;;;40.65;18.60;;;;;;;3.40;99.59;101325.63;2022464;80;20881;-69
2022/01/18 04:58:05;;;;;;;40.00;18.76;;;;;;;3.41;99.73;101323.94;2022588;80;20352;-68
2022/01/18 05:01:10;;;;;;;37.56;17.79;;;;;;;3.43;99.98;101325.81;2021634;78;20416;-68
2022/01/18 05:04:13;;;;;;;35.08;16.71;;;;;;;3.47;99.99;101332.00;2022765;80;20360;-68
2022/01/18 05:07:18;;;;;;;37.70;16.89;;;;;;;3.46;99.80;101327.66;2022819;80;20326;-68
2022/01/18 05:10:23;;;;;;;31.59;16.85;;;;;;;3.44;99.66;101335.28;2022730;80;20790;-68
2022/01/18 05:19:58;;;;;;;34.26;16.86;;;;;;;3.42;99.68;101331.75;2022868;80;20357;-68
2022/01/18 05:23:03;;;;;;;35.76;17.71;;;;;;;3.44;99.71;101340.41;2022540;80;20442;-68
2022/01/18 05:26:06;;;;;;;33.60;17.51;;;;;;;3.45;99.67;101342.19;2022195;80;20357;-68
2022/01/18 05:29:09;;;;;;;33.11;16.52;;;;;;;3.45;99.57;101344.75;2022794;80;20891;-68
2022/01/18 05:32:12;;;;;;;32.46;16.36;;;;;;;3.44;99.43;101340.41;2021433;77;35457;-68
2022/01/18 05:35:15;;;;;;;30.49;15.79;;;;;;;3.43;99.41;101338.66;2022807;80;20860;-68
2022/01/18 05:38:18;;;;;;;30.41;16.41;;;;;;;3.43;99.41;101356.63;2022577;80;20351;-68
2022/01/18 05:41:21;;;;;;;29.29;15.34;;;;;;;3.43;99.35;101351.50;2023398;80;20316;-68
2022/01/18 05:44:25;;;;;;;35.84;17.39;;;;;;;3.42;99.29;101367.69;2022615;80;20991;-69
2022/01/18 05:47:28;;;;;;;37.28;18.02;;;;;;;3.43;99.34;101366.91;2021434;78;21038;-68
2022/01/18 05:50:30;;;;;;;35.79;16.90;;;;;;;3.45;99.43;101352.47;2022550;80;20374;-68
2022/01/18 05:53:39;;;;;;;34.72;17.73;;;;;;;3.48;99.54;101354.31;2023166;80;20889;-68
2022/01/18 05:56:41;;;;;;;34.83;15.81;;;;;;;3.49;99.53;101351.81;2022476;80;20339;-68
2022/01/18 05:59:46;;;;;;;32.99;15.74;;;;;;;3.47;99.34;101358.56;2022447;80;20631;-69
2022/01/18 06:09:25;;;;;;;32.41;16.52;;;;;;;3.45;99.39;101360.16;2022333;80;20866;-68
2022/01/18 06:12:29;;;;;;;30.34;16.80;;;;;;;3.45;99.41;101366.97;2023207;80;20332;-68
2022/01/18 06:15:32;;;;;;;29.81;15.93;;;;;;;3.45;99.33;101355.03;2021286;78;25561;-68
2022/01/18 06:18:34;;;;;;;35.64;16.36;;;;;;;3.44;99.25;101352.38;2022404;80;20406;-68
2022/01/18 06:21:38;;;;;;;35.55;16.67;;;;;;;3.44;99.16;101353.25;2022819;80;20357;-68
2022/01/18 06:24:40;;;;;;;43.75;18.55;;;;;;;3.42;99.12;101343.69;2022564;80;20342;-68
2022/01/18 06:27:43;;;;;;;45.51;21.04;;;;;;;3.42;99.23;101344.59;2022779;80;20317;-68
2022/01/18 06:30:47;;;;;;;45.28;21.23;;;;;;;3.43;99.39;101341.22;2021597;78;21282;-68
2022/01/18 06:33:50;;;;;;;40.78;20.91;;;;;;;3.46;99.49;101343.06;2023574;80;20308;-68
2022/01/18 06:36:57;;;;;;;31.42;17.08;;;;;;;3.48;99.46;101360.31;2023328;80;20690;-68
2022/01/18 06:40:03;;;;;;;33.58;16.84;;;;;;;3.43;99.11;101354.06;2022618;80;20828;-68
2022/01/18 06:43:06;;;;;;;33.10;17.60;;;;;;;3.40;98.97;101359.00;2022949;80;20773;-68
2022/01/18 06:46:10;;;;;;;32.16;16.75;;;;;;;3.38;98.99;101364.84;2020809;78;21807;-68
2022/01/18 06:49:12;;;;;;;31.39;15.82;;;;;;;3.36;98.96;101358.75;2022054;80;20357;-68
2022/01/18 06:52:15;;;;;;;32.79;17.11;;;;;;;3.29;98.75;101365.22;2022528;80;20355;-68
2022/01/18 06:55:17;;;;;;;31.71;16.04;;;;;;;3.29;99.11;101371.25;2022597;80;20901;-68
2022/01/18 06:58:20;;;;;;;30.55;14.85;;;;;;;3.31;99.25;101379.03;2023158;80;20856;-68
2022/01/18 07:01:23;;;;;;;29.89;16.21;;;;;;;3.30;99.16;101374.69;2020961;78;23162;-67
2022/01/18 07:04:26;;;;;;;33.94;16.38;;;;;;;3.27;99.28;101374.53;2019056;80;20341;-68
2022/01/18 07:07:29;;;;;;;33.75;16.06;;;;;;;3.29;99.37;101380.63;2021858;80;20329;-67
2022/01/18 07:10:31;;;;;;;33.71;15.96;;;;;;;3.29;99.40;101378.94;2022271;80;20312;-68
2022/01/18 07:13:34;;;;;;;32.30;16.80;;;;;;;3.29;99.31;101383.19;2022769;80;20345;-68
2022/01/18 07:16:40;;;;;;;31.69;16.58;;;;;;;3.31;99.39;101379.03;2021045;77;20793;-69
2022/01/18 07:19:43;;;;;;;28.26;16.10;;;;;;;3.34;99.56;101385.22;2022804;80;20346;-69
2022/01/18 07:22:46;;;;;;;28.36;15.13;;;;;;;3.41;99.69;101386.47;2022246;80;20347;-68
2022/01/18 07:25:49;;;;;;;29.27;15.06;;;;;;;3.44;99.61;101385.75;2022888;80;20366;-68
2022/01/18 07:28:51;;;;;;;25.89;14.46;;;;;;;3.48;99.56;101385.13;2021865;80;20308;-68
2022/01/18 07:31:54;;;;;;;27.39;15.93;;;;;;;3.50;99.41;101396.34;2020562;78;22260;-68
2022/01/18 07:34:57;;;;;;;31.52;16.09;;;;;;;3.47;99.29;101391.06;2022738;80;20767;-68
2022/01/18 07:38:04;;;;;;;29.70;14.88;;;;;;;3.48;99.35;101393.72;2022484;80;20292;-68
2022/01/18 07:41:08;;;;;;;28.17;15.09;;;;;;;3.48;99.38;101387.69;2022819;80;20356;-68
2022/01/18 07:44:11;;;;;;;30.39;15.70;;;;;;;3.49;99.33;101394.59;2023523;80;20203;-68
2022/01/18 07:47:13;;;;;;;28.66;15.44;;;;;;;3.50;99.40;101388.66;2021618;78;20844;-68
2022/01/18 07:50:18;;;;;;;30.58;15.65;;;;;;;3.55;99.53;101389.78;2023283;80;20319;-70
2022/01/18 07:53:21;;;;;;;32.38;16.08;;;;;;;3.61;99.75;101396.16;2023998;80;20316;-69
2022/01/18 07:56:23;;;;;;;30.00;14.55;;;;;;;3.69;99.81;101401.72;2022945;80;20358;-68
2022/01/18 07:59:27;;;;;;;32.21;16.77;;;;;;;3.77;99.89;101394.41;2023217;80;20778;-71
2022/01/18 08:02:32;;;;;;;28.35;14.91;;;;;;;3.82;99.81;101399.03;2021787;77;20929;-69
2022/01/18 08:05:35;;;;;;;23.20;13.63;;;;;;;3.83;99.65;101399.91;2023323;80;20344;-69
2022/01/18 08:08:42;;;;;;;26.81;14.16;;;;;;;3.85;99.74;101400.88;2019846;80;20341;-69
2022/01/18 08:11:50;;;;;;;26.16;14.48;;;;;;;3.88;99.81;101401.94;2023258;80;20319;-69
2022/01/18 08:14:59;;;;;;;29.81;15.06;;;;;;;3.90;99.69;101394.31;2023095;80;20409;-69
2022/01/18 08:18:22;;;;;;;25.76;14.40;;;;;;;3.92;99.71;101395.25;2023698;80;20175;-68
2022/01/18 08:21:25;;;;;;;35.55;18.40;;;;;;;3.97;99.92;101386.13;2023662;80;20353;-69
2022/01/18 08:24:28;;;;;;;28.61;15.88;;;;;;;4.03;99.92;101385.56;2023399;80;20343;-69
2022/01/18 08:27:31;;;;;;;28.40;16.84;;;;;;;4.11;99.97;101390.31;2023165;80;20304;-69
2022/01/18 08:30:34;;;;;;;29.33;17.34;;;;;;;4.18;99.95;101387.28;2022069;78;24509;-69
2022/01/18 08:33:36;;;;;;;27.25;15.93;;;;;;;4.29;99.95;101385.25;2023559;80;20316;-70
2022/01/18 08:36:40;;;;;;;30.10;16.54;;;;;;;4.40;99.90;101390.97;2023031;80;20329;-69
2022/01/18 08:39:42;;;;;;;28.41;15.85;;;;;;;4.49;99.75;101391.47;2022862;80;20320;-70
2022/01/18 08:42:45;;;;;;;25.49;15.86;;;;;;;4.57;99.53;101394.44;2023376;80;20373;-72
2022/01/18 08:45:48;;;;;;;27.61;15.34;;;;;;;4.66;99.41;101395.78;2021040;77;34608;-70
2022/01/18 08:48:51;;;;;;;28.58;15.51;;;;;;;4.76;99.19;101392.88;2023509;80;20300;-70
2022/01/18 08:51:54;;;;;;;24.60;14.04;;;;;;;4.88;98.89;101390.06;2022951;80;20336;-69
2022/01/18 08:54:56;;;;;;;22.99;13.44;;;;;;;5.00;98.62;101392.34;2023206;80;20346;-69
2022/01/18 08:57:59;;;;;;;21.56;12.56;;;;;;;5.10;98.22;101387.75;2023174;80;20810;-69
2022/01/18 09:01:03;;;;;;;22.83;12.16;;;;;;;5.21;97.85;101392.56;2021552;77;20475;-70
2022/01/18 09:04:06;;;;;;;22.81;12.18;;;;;;;5.33;97.43;101404.31;2023643;80;20368;-69
2022/01/18 09:07:09;;;;;;;20.11;11.71;;;;;;;5.40;96.92;101396.09;2022779;80;20656;-68
2022/01/18 09:10:12;;;;;;;22.98;12.21;;;;;;;5.54;96.36;101399.31;2023195;80;20320;-69
2022/01/18 09:13:16;;;;;;;15.20;10.31;;;;;;;5.71;96.06;101397.53;2023236;80;20328;-69
2022/01/18 09:16:19;;;;;;;22.21;11.86;;;;;;;5.90;94.98;101396.75;2021445;78;22259;-69
2022/01/18 09:19:22;;;;;;;18.89;10.94;;;;;;;6.11;94.08;101405.50;2023634;80;20850;-69
2022/01/18 09:22:25;;;;;;;18.98;11.63;;;;;;;6.24;93.27;101400.06;2023075;80;20402;-69
2022/01/18 09:25:29;;;;;;;17.14;10.77;;;;;;;6.51;92.48;101391.81;2023690;80;21111;-69
2022/01/18 09:28:32;;;;;;;16.71;10.16;;;;;;;6.85;90.77;101399.31;2023031;80;21256;-70
2022/01/18 09:31:37;;;;;;;14.76;9.54;;;;;;;7.17;88.99;101391.19;2021432;77;20683;-71
2022/01/18 09:34:39;;;;;;;14.85;8.73;;;;;;;7.47;86.90;101388.97;2023276;80;20527;-71
2022/01/18 09:37:43;;;;;;;16.02;9.05;;;;;;;7.75;85.15;101395.25;2023097;80;20316;-69
2022/01/18 09:40:46;;;;;;;14.63;9.30;;;;;;;7.92;83.29;101386.44;2019484;80;20323;-69
2022/01/18 09:43:48;;;;;;;17.58;8.96;;;;;;;8.03;81.86;101389.44;2018797;80;20829;-70
2022/01/18 09:46:51;;;;;;;12.05;7.59;;;;;;;8.22;81.06;101386.69;2021362;78;23048;-71
2022/01/18 09:49:57;;;;;;;10.86;7.82;;;;;;;8.31;80.17;101394.81;2022395;80;20407;-70
2022/01/18 09:53:00;;;;;;;14.48;7.59;;;;;;;8.45;79.36;101391.06;2020856;80;20292;-71
2022/01/18 09:56:04;;;;;;;17.58;8.07;;;;;;;8.52;78.56;101396.47;2020945;80;20385;-70
2022/01/18 09:59:08;;;;;;;11.91;6.93;;;;;;;8.63;77.87;101395.16;2021682;80;20406;-70
2022/01/18 10:02:10;;;;;;;12.25;6.89;;;;;;;8.69;77.56;101396.22;2019130;78;22840;-71
2022/01/18 10:05:20;;;;;;;12.71;4.59;;;;;;;8.86;76.66;101399.41;2020357;80;20361;-69
2022/01/18 10:08:23;;;;;;;10.13;3.72;;;;;;;8.91;75.87;101389.19;2020515;80;20877;-70
2022/01/18 10:11:27;;;;;;;7.30;3.29;;;;;;;8.90;75.48;101400.41;2020977;80;20307;-69
2022/01/18 10:14:30;;;;;;;9.60;3.56;;;;;;;8.85;75.28;101402.84;2020542;80;20328;-70
2022/01/18 10:17:38;;;;;;;5.95;2.71;;;;;;;8.77;75.22;101405.13;2019483;77;20368;-70
2022/01/18 10:20:52;;;;;;;5.74;2.92;;;;;;;8.78;74.55;101408.63;2024333;80;20497;-70
2022/01/18 10:24:11;;;;;;;9.06;3.41;;;;;;;8.84;74.82;101403.66;2016768;80;20440;-70
2022/01/18 10:27:14;;;;;;;5.84;3.22;;;;;;;8.71;74.57;101402.34;2022007;80;20373;-69
2022/01/18 10:30:32;;;;;;;9.93;3.30;;;;;;;8.58;75.13;101397.56;2019385;80;20349;-70
2022/01/18 10:33:47;;;;;;;10.70;3.05;;;;;;;8.43;74.97;101394.41;2021973;80;20380;-70
2022/01/18 10:36:52;;;;;;;7.78;3.58;;;;;;;8.28;75.56;101386.94;2017502;80;20385;-70
2022/01/18 10:39:56;;;;;;;6.86;3.22;;;;;;;8.21;76.11;101384.94;2020636;80;20324;-70
2022/01/18 10:43:04;;;;;;;6.55;2.81;;;;;;;8.19;76.13;101382.28;2021309;80;20320;-70
2022/01/18 10:46:15;;;;;;;5.79;2.22;;;;;;;8.26;76.51;101377.34;2020307;77;20426;-71
2022/01/18 10:49:25;;;;;;;7.95;2.53;;;;;;;8.30;75.70;101377.53;2021794;80;20333;-69
2022/01/18 10:52:28;;;;;;;4.04;2.49;;;;;;;8.28;75.50;101368.84;2020863;80;20759;-71
2022/01/18 10:55:31;;;;;;;6.28;2.20;;;;;;;8.22;75.45;101366.00;2021634;80;20300;-70
2022/01/18 10:58:46;;;;;;;6.80;2.40;;;;;;;8.22;75.18;101363.41;2020818;80;21139;-70
2022/01/18 11:02:13;;;;;;;5.18;2.10;;;;;;;8.26;75.04;101367.00;2019819;78;20463;-73
2022/01/18 11:05:28;;;;;;;7.43;2.10;;;;;;;8.21;74.54;101359.06;2021055;80;20512;-70
2022/01/18 11:08:31;;;;;;;3.49;2.31;;;;;;;8.29;75.25;101354.19;2020845;80;20352;-70
2022/01/18 11:11:41;;;;;;;5.28;2.30;;;;;;;8.36;74.94;101353.59;2020783;80;20359;-70
2022/01/18 11:14:46;;;;;;;5.13;2.53;;;;;;;8.38;74.82;101349.34;2020907;80;21000;-69
2022/01/18 11:17:56;;;;;;;4.09;2.06;;;;;;;8.36;74.88;101351.91;2020445;77;22912;-70
2022/01/18 11:21:03;;;;;;;3.04;1.91;;;;;;;8.30;74.22;101341.31;2022219;80;21163;-71
2022/01/18 11:24:06;;;;;;;5.89;2.15;;;;;;;8.23;73.51;101341.88;2022683;80;20331;-72
2022/01/18 11:27:13;;;;;;;3.34;1.81;;;;;;;8.28;73.14;101342.06;2021844;80;20312;-69
2022/01/18 11:30:19;;;;;;;5.24;2.07;;;;;;;8.29;73.21;101347.31;2020760;80;20367;-70
2022/01/18 11:33:26;;;;;;;6.35;2.03;;;;;;;8.33;72.85;101341.41;2022427;78;21315;-70
2022/01/18 11:36:35;;;;;;;2.67;1.48;;;;;;;8.37;72.94;101332.94;2021840;80;21440;-69
2022/01/18 11:39:38;;;;;;;5.71;1.80;;;;;;;8.43;72.62;101335.75;2021927;80;20296;-69
2022/01/18 11:42:44;;;;;;;2.75;1.33;;;;;;;8.43;72.07;101330.56;2022239;80;20321;-70
2022/01/18 11:45:47;;;;;;;4.00;1.45;;;;;;;8.41;71.51;101327.03;2021046;78;21507;-69
2022/01/18 11:48:59;;;;;;;5.76;1.60;;;;;;;8.54;71.86;101328.38;2021559;80;20323;-70
2022/01/18 11:52:05;;;;;;;4.47;1.63;;;;;;;8.63;71.69;101322.66;2021930;80;20337;-69
2022/01/18 11:55:37;;;;;;;4.44;1.73;;;;;;;8.58;71.14;101324.16;2022041;80;20300;-70
2022/01/18 11:58:43;;;;;;;3.86;1.41;;;;;;;8.52;70.74;101317.09;2022532;80;20303;-70
2022/01/18 12:01:50;;;;;;;4.74;1.48;;;;;;;8.44;71.07;101328.91;2020281;77;20765;-70
2022/01/18 12:05:03;;;;;;;5.01;1.19;;;;;;;8.36;70.26;101327.72;2022687;80;20520;-71
2022/01/18 12:08:06;;;;;;;2.44;1.26;;;;;;;8.26;70.77;101317.81;2022248;80;20320;-70
2022/01/18 12:11:11;;;;;;;4.30;1.36;;;;;;;8.11;70.33;101319.06;2022107;80;20384;-71
2022/01/18 12:14:32;;;;;;;3.65;1.40;;;;;;;8.07;70.63;101318.84;2022183;80;20440;-71
2022/01/18 12:18:10;;;;;;;4.25;1.14;;;;;;;8.04;71.10;101322.22;2018844;77;21428;-71
2022/01/18 12:21:20;;;;;;;3.80;1.27;;;;;;;8.00;70.78;101320.34;2016964;80;20376;-70
2022/01/18 12:24:23;;;;;;;3.30;1.36;;;;;;;7.97;70.56;101316.78;2021357;80;20346;-71
2022/01/18 12:27:32;;;;;;;3.26;1.49;;;;;;;7.96;70.20;101321.06;2021340;80;20363;-70
2022/01/18 12:33:44;;;;;;;4.55;1.50;;;;;;;7.95;71.12;101321.03;2021393;80;20201;-71
2022/01/18 12:36:47;;;;;;;3.06;1.41;;;;;;;7.86;71.00;101317.25;2021677;80;20320;-71
2022/01/18 12:39:50;;;;;;;1.75;1.15;;;;;;;7.89;71.39;101319.06;2022389;80;20332;-70
2022/01/18 12:46:05;;;;;;;3.16;1.25;;;;;;;7.98;71.06;101306.47;2020109;77;21428;-71
2022/01/18 12:49:09;;;;;;;3.14;1.44;;;;;;;8.00;71.23;101303.94;2020604;80;20327;-71
2022/01/18 12:52:49;;;;;;;4.01;1.41;;;;;;;7.98;70.76;101295.25;2017033;80;20376;-71
2022/01/18 12:55:55;;;;;;;2.38;1.01;;;;;;;7.95;69.86;101287.41;2020907;80;20315;-70
2022/01/18 12:59:02;;;;;;;2.90;0.90;;;;;;;7.93;70.14;101286.47;2021026;80;20342;-71
2022/01/18 13:02:19;;;;;;;2.50;0.90;;;;;;;7.89;70.35;101280.25;2018563;77;20356;-70
2022/01/18 13:05:32;;;;;;;2.17;0.93;;;;;;;7.85;69.81;101274.09;2020029;80;20654;-70
2022/01/18 13:08:53;;;;;;;3.33;1.14;;;;;;;7.80;70.02;101267.91;2020945;80;20818;-70
2022/01/18 13:12:03;;;;;;;3.46;1.21;;;;;;;7.77;70.38;101266.91;2021895;80;20344;-71
2022/01/18 13:15:09;;;;;;;3.21;1.20;;;;;;;7.73;70.70;101262.44;2020065;80;20316;-71
2022/01/18 13:25:12;;;;;;;4.64;1.13;;;;;;;7.58;71.46;101258.47;2021472;80;20405;-70
2022/01/18 13:28:15;;;;;;;1.83;0.90;;;;;;;7.50;70.94;101265.03;2021972;80;20975;-71
2022/01/18 13:31:24;;;;;;;4.94;1.10;;;;;;;7.45;71.19;101260.53;2019000;77;21013;-71
2022/01/18 13:34:36;;;;;;;3.03;1.00;;;;;;;7.41;71.88;101264.69;2021220;80;20323;-70
2022/01/18 13:37:39;;;;;;;3.64;0.94;;;;;;;7.39;71.87;101271.50;2021655;80;20430;-70
2022/01/18 13:40:45;;;;;;;1.17;0.60;;;;;;;7.35;71.02;101273.91;2021290;80;20341;-71
2022/01/18 13:43:48;;;;;;;1.70;0.61;;;;;;;7.33;70.19;101263.50;2021325;80;21027;-70
2022/01/18 13:46:51;;;;;;;1.80;0.60;;;;;;;7.36;69.36;101258.47;2019764;78;23286;-68
2022/01/18 13:49:54;;;;;;;1.08;0.61;;;;;;;7.45;69.24;101252.78;2022052;80;20357;-68
2022/01/18 13:53:03;;;;;;;2.29;0.90;;;;;;;7.52;69.52;101254.75;2021647;80;20340;-68
2022/01/18 13:56:10;;;;;;;0.94;0.64;;;;;;;7.56;69.61;101256.66;2021490;80;20337;-69
2022/01/18 13:59:12;;;;;;;1.88;0.60;;;;;;;7.55;69.51;101257.47;2024395;80;20223;-68
2022/01/18 14:02:18;;;;;;;2.31;1.00;;;;;;;7.57;69.33;101245.50;2020395;77;22791;-68
2022/01/18 14:05:23;;;;;;;3.51;0.71;;;;;;;7.56;69.14;101235.97;2021796;80;20316;-68
2022/01/18 14:08:40;;;;;;;1.61;0.64;;;;;;;7.51;68.97;101234.91;2021471;80;20508;-68
2022/01/18 14:11:54;;;;;;;2.24;1.29;;;;;;;7.45;68.66;101232.09;2021755;80;20378;-68
2022/01/18 14:14:58;;;;;;;2.67;1.71;;;;;;;7.42;68.91;101225.09;2018171;80;20641;-68
2022/01/18 14:18:04;;;;;;;0.77;0.77;;;;;;;7.41;69.30;101218.19;2019987;77;21409;-68
2022/01/18 14:21:31;;;;;;;2.09;0.70;;;;;;;7.38;69.16;101225.81;2022016;80;20316;-69
2022/01/18 14:24:40;;;;;;;1.86;0.79;;;;;;;7.35;68.83;101220.50;2021726;80;20843;-68
2022/01/18 14:27:43;;;;;;;3.17;0.66;;;;;;;7.31;68.67;101222.94;2017369;80;20434;-70
2022/01/18 14:30:47;;;;;;;1.98;0.80;;;;;;;7.22;68.26;101224.34;2019823;78;21388;-71
2022/01/18 14:33:50;;;;;;;2.30;1.00;;;;;;;7.13;68.94;101221.41;2021392;80;20337;-70
2022/01/18 14:36:55;;;;;;;2.95;1.45;;;;;;;7.12;69.51;101218.75;2021487;80;20332;-71
2022/01/18 14:40:00;;;;;;;2.54;1.01;;;;;;;7.11;69.64;101220.47;2021345;80;20368;-71
2022/01/18 14:43:11;;;;;;;1.67;0.88;;;;;;;7.09;69.78;101221.22;2022278;80;20320;-70
2022/01/18 14:46:36;;;;;;;0.96;0.70;;;;;;;7.06;69.86;101214.25;2019678;78;20888;-70
2022/01/18 14:49:39;;;;;;;1.21;0.60;;;;;;;7.05;70.03;101209.91;2021299;80;20341;-70
2022/01/18 14:52:44;;;;;;;1.48;0.60;;;;;;;7.01;70.09;101210.63;2021954;80;20328;-70
2022/01/18 14:55:47;;;;;;;1.81;0.69;;;;;;;6.97;69.95;101213.88;2021126;80;20884;-71
2022/01/18 14:58:49;;;;;;;1.94;0.60;;;;;;;6.90;70.01;101202.44;2021786;80;20345;-70
2022/01/18 15:01:53;;;;;;;0.95;0.63;;;;;;;6.90;70.19;101201.56;2019834;77;20806;-70
2022/01/18 15:04:56;;;;;;;1.61;0.60;;;;;;;6.86;70.34;101202.25;2021813;80;20390;-71
2022/01/18 15:07:59;;;;;;;0.90;0.60;;;;;;;6.84;70.84;101203.91;2020824;80;20361;-71
2022/01/18 15:11:02;;;;;;;1.84;1.05;;;;;;;6.81;70.75;101206.34;2024602;80;20359;-70
2022/01/18 15:14:04;;;;;;;0.96;0.65;;;;;;;6.80;71.34;101204.56;2021788;80;21142;-70
2022/01/18 15:17:07;;;;;;;1.65;0.71;;;;;;;6.79;71.34;101201.13;2015737;77;21268;-70
2022/01/18 15:20:11;;;;;;;1.65;0.64;;;;;;;6.76;70.98;101206.16;2021740;80;20312;-71
2022/01/18 15:23:13;;;;;;;0.86;0.60;;;;;;;6.73;70.84;101200.00;2021717;80;20414;-70
2022/01/18 15:26:27;;;;;;;0.89;0.40;;;;;;;6.71;71.10;101196.47;2021891;80;20727;-70
2022/01/18 15:29:33;;;;;;;0.88;0.59;;;;;;;6.65;71.04;101187.69;2020869;80;20892;-70
2022/01/18 15:32:35;;;;;;;0.79;0.40;;;;;;;6.61;71.24;101178.03;2020120;78;25070;-70
2022/01/18 15:35:38;;;;;;;1.09;0.50;;;;;;;6.55;71.23;101188.13;2021054;80;20392;-70
2022/01/18 15:38:41;;;;;;;0.68;0.40;;;;;;;6.49;71.75;101187.88;2021035;80;20296;-70